sensor_id;sensor_type;location;lat;lon;timestamp;pressure;altitude;pressure_sealevel;temperature;humidity
141;BME280;65;48.778;9.160;2022-12-29T00:01:34;98114.44;;;8.78;75.89
141;BME280;65;48.778;9.160;2022-12-29T00:04:00;98118.28;;;8.72;78.66
141;BME280;65;48.778;9.160;2022-12-29T00:06:25;98117.41;;;8.87;75.25
141;BME280;65;48.778;9.160;2022-12-29T00:08:51;98124.69;;;8.98;74.79
141;BME280;65;48.778;9.160;2022-12-29T00:11:22;98123.34;;;8.91;75.67
141;BME280;65;48.778;9.160;2022-12-29T00:13:48;98115.84;;;8.99;75.01
141;BME280;65;48.778;9.160;2022-12-29T00:16:33;98113.50;;;9.09;74.39
141;BME280;65;48.778;9.160;2022-12-29T00:18:59;98102.59;;;9.15;73.74
141;BME280;65;48.778;9.160;2022-12-29T00:21:25;98106.94;;;9.16;74.58
141;BME280;65;48.778;9.160;2022-12-29T00:24:16;98097.28;;;9.01;74.49
141;BME280;65;48.778;9.160;2022-12-29T00:29:41;98093.22;;;8.95;75.25
141;BME280;65;48.778;9.160;2022-12-29T00:32:24;98097.03;;;9.05;74.64
141;BME280;65;48.778;9.160;2022-12-29T00:35:13;98090.63;;;9.09;75.33
141;BME280;65;48.778;9.160;2022-12-29T00:37:42;98083.94;;;9.04;75.51
141;BME280;65;48.778;9.160;2022-12-29T00:40:27;98087.41;;;9.04;76.14
141;BME280;65;48.778;9.160;2022-12-29T00:43:11;98084.41;;;9.10;74.89
141;BME280;65;48.778;9.160;2022-12-29T00:45:55;98075.25;;;9.32;73.38
141;BME280;65;48.778;9.160;2022-12-29T00:48:22;98078.09;;;9.43;73.77
141;BME280;65;48.778;9.160;2022-12-29T00:51:06;98074.69;;;9.41;73.05
141;BME280;65;48.778;9.160;2022-12-29T00:53:32;98073.75;;;9.42;73.47
141;BME280;65;48.778;9.160;2022-12-29T00:55:57;98068.59;;;9.40;73.20
141;BME280;65;48.778;9.160;2022-12-29T00:58:23;98066.59;;;9.44;73.39
141;BME280;65;48.778;9.160;2022-12-29T01:00:49;98071.69;;;9.61;72.16
141;BME280;65;48.778;9.160;2022-12-29T01:03:14;98073.00;;;9.68;71.66
141;BME280;65;48.778;9.160;2022-12-29T01:05:39;98077.16;;;9.72;71.40
141;BME280;65;48.778;9.160;2022-12-29T01:08:05;98070.09;;;9.73;71.56
141;BME280;65;48.778;9.160;2022-12-29T01:10:30;98082.16;;;9.77;70.52
141;BME280;65;48.778;9.160;2022-12-29T01:12:55;98084.69;;;9.78;71.27
141;BME280;65;48.778;9.160;2022-12-29T01:15:21;98087.34;;;9.64;72.32
141;BME280;65;48.778;9.160;2022-12-29T01:17:47;98092.16;;;9.58;71.95
141;BME280;65;48.778;9.160;2022-12-29T01:20:12;98096.19;;;9.49;72.76
141;BME280;65;48.778;9.160;2022-12-29T01:22:38;98089.31;;;9.46;72.63
141;BME280;65;48.778;9.160;2022-12-29T01:25:05;98084.59;;;9.37;74.71
141;BME280;65;48.778;9.160;2022-12-29T01:27:31;98090.81;;;9.50;72.28
141;BME280;65;48.778;9.160;2022-12-29T01:29:56;98087.16;;;9.53;73.13
141;BME280;65;48.778;9.160;2022-12-29T01:32:22;98091.94;;;9.46;73.22
141;BME280;65;48.778;9.160;2022-12-29T01:34:47;98092.13;;;9.43;73.57
141;BME280;65;48.778;9.160;2022-12-29T01:37:13;98091.75;;;9.35;74.92
141;BME280;65;48.778;9.160;2022-12-29T01:39:38;98087.09;;;9.25;74.42
141;BME280;65;48.778;9.160;2022-12-29T01:42:04;98087.25;;;9.22;74.84
141;BME280;65;48.778;9.160;2022-12-29T01:47:23;98090.06;;;9.34;74.20
141;BME280;65;48.778;9.160;2022-12-29T01:49:52;98091.09;;;9.32;74.57
141;BME280;65;48.778;9.160;2022-12-29T01:52:19;98089.38;;;9.31;75.16
141;BME280;65;48.778;9.160;2022-12-29T01:54:48;98088.97;;;9.23;75.44
141;BME280;65;48.778;9.160;2022-12-29T01:57:18;98082.53;;;9.12;76.48
141;BME280;65;48.778;9.160;2022-12-29T02:00:09;98085.34;;;9.09;76.25
141;BME280;65;48.778;9.160;2022-12-29T02:02:36;98086.34;;;8.93;77.54
141;BME280;65;48.778;9.160;2022-12-29T02:05:07;98073.13;;;8.78;78.54
141;BME280;65;48.778;9.160;2022-12-29T02:07:35;98074.50;;;8.70;79.12
141;BME280;65;48.778;9.160;2022-12-29T02:10:03;98069.66;;;8.62;79.61
141;BME280;65;48.778;9.160;2022-12-29T02:12:28;98066.59;;;8.54;80.50
141;BME280;65;48.778;9.160;2022-12-29T02:15:00;98064.94;;;8.37;82.28
141;BME280;65;48.778;9.160;2022-12-29T02:30:44;98060.72;;;7.70;88.45
141;BME280;65;48.778;9.160;2022-12-29T02:33:26;98060.19;;;7.64;88.88
141;BME280;65;48.778;9.160;2022-12-29T02:36:27;98060.03;;;7.67;90.14
141;BME280;65;48.778;9.160;2022-12-29T02:42:03;98061.81;;;7.66;90.34
141;BME280;65;48.778;9.160;2022-12-29T02:47:19;98047.81;;;7.66;91.05
141;BME280;65;48.778;9.160;2022-12-29T02:52:35;98043.47;;;7.65;91.28
141;BME280;65;48.778;9.160;2022-12-29T02:55:01;98043.81;;;7.58;91.06
141;BME280;65;48.778;9.160;2022-12-29T02:57:30;98048.66;;;7.66;91.10
141;BME280;65;48.778;9.160;2022-12-29T03:00:11;98050.69;;;7.61;91.55
141;BME280;65;48.778;9.160;2022-12-29T03:03:24;98051.63;;;7.60;92.41
141;BME280;65;48.778;9.160;2022-12-29T03:14:14;98048.22;;;7.58;92.67
141;BME280;65;48.778;9.160;2022-12-29T03:17:05;98039.78;;;7.51;92.55
141;BME280;65;48.778;9.160;2022-12-29T03:19:37;98029.34;;;7.50;93.16
141;BME280;65;48.778;9.160;2022-12-29T03:22:13;98037.16;;;7.51;94.08
141;BME280;65;48.778;9.160;2022-12-29T03:25:09;98036.75;;;7.59;93.76
141;BME280;65;48.778;9.160;2022-12-29T03:27:41;98029.56;;;7.63;93.92
141;BME280;65;48.778;9.160;2022-12-29T03:30:09;98019.72;;;7.66;93.22
141;BME280;65;48.778;9.160;2022-12-29T03:32:39;98018.13;;;7.79;92.36
141;BME280;65;48.778;9.160;2022-12-29T03:35:08;98013.78;;;7.78;92.10
141;BME280;65;48.778;9.160;2022-12-29T03:38:10;98016.00;;;7.70;92.84
141;BME280;65;48.778;9.160;2022-12-29T03:40:38;98012.59;;;7.68;93.67
141;BME280;65;48.778;9.160;2022-12-29T03:43:05;98007.34;;;7.84;92.42
141;BME280;65;48.778;9.160;2022-12-29T03:45:31;98000.47;;;7.97;89.45
141;BME280;65;48.778;9.160;2022-12-29T03:47:57;97996.28;;;8.40;87.14
141;BME280;65;48.778;9.160;2022-12-29T03:50:23;97990.78;;;8.75;84.15
141;BME280;65;48.778;9.160;2022-12-29T03:52:48;97978.81;;;9.28;80.32
141;BME280;65;48.778;9.160;2022-12-29T03:55:14;97983.25;;;9.97;76.61
141;BME280;65;48.778;9.160;2022-12-29T03:57:39;97977.00;;;10.12;74.84
141;BME280;65;48.778;9.160;2022-12-29T04:00:05;97983.00;;;10.28;74.64
141;BME280;65;48.778;9.160;2022-12-29T04:02:31;97993.25;;;10.33;74.33
141;BME280;65;48.778;9.160;2022-12-29T04:04:56;98000.38;;;10.18;74.92
141;BME280;65;48.778;9.160;2022-12-29T04:07:22;98001.41;;;10.15;75.02
141;BME280;65;48.778;9.160;2022-12-29T04:09:47;98001.88;;;10.22;74.81
141;BME280;65;48.778;9.160;2022-12-29T04:12:13;97994.50;;;10.27;74.19
141;BME280;65;48.778;9.160;2022-12-29T04:14:39;97995.09;;;10.18;74.90
141;BME280;65;48.778;9.160;2022-12-29T04:17:05;97999.19;;;10.36;73.70
141;BME280;65;48.778;9.160;2022-12-29T04:19:30;98003.06;;;10.45;73.07
141;BME280;65;48.778;9.160;2022-12-29T04:21:56;98016.91;;;10.49;72.92
141;BME280;65;48.778;9.160;2022-12-29T04:24:21;98027.13;;;10.40;73.59
141;BME280;65;48.778;9.160;2022-12-29T04:26:46;98040.56;;;10.23;74.68
141;BME280;65;48.778;9.160;2022-12-29T04:29:12;98039.06;;;10.05;75.57
141;BME280;65;48.778;9.160;2022-12-29T04:31:37;98027.22;;;9.83;76.83
141;BME280;65;48.778;9.160;2022-12-29T04:34:02;98034.31;;;9.83;77.36
141;BME280;65;48.778;9.160;2022-12-29T04:36:46;98015.22;;;9.78;78.03
141;BME280;65;48.778;9.160;2022-12-29T04:39:27;98004.69;;;9.78;77.74
141;BME280;65;48.778;9.160;2022-12-29T04:41:52;98001.69;;;9.84;78.65
141;BME280;65;48.778;9.160;2022-12-29T04:44:17;97999.69;;;9.88;78.26
141;BME280;65;48.778;9.160;2022-12-29T04:46:43;98001.56;;;10.00;77.60
141;BME280;65;48.778;9.160;2022-12-29T04:49:08;98013.75;;;10.29;75.92
141;BME280;65;48.778;9.160;2022-12-29T04:51:33;98010.75;;;10.21;76.33
141;BME280;65;48.778;9.160;2022-12-29T04:53:59;98004.88;;;10.30;76.18
141;BME280;65;48.778;9.160;2022-12-29T04:56:25;98019.00;;;10.43;75.80
141;BME280;65;48.778;9.160;2022-12-29T04:58:50;98013.13;;;10.53;75.66
141;BME280;65;48.778;9.160;2022-12-29T05:01:16;98016.84;;;10.63;74.99
141;BME280;65;48.778;9.160;2022-12-29T05:03:41;98027.75;;;10.71;75.55
141;BME280;65;48.778;9.160;2022-12-29T05:06:06;98016.56;;;10.80;74.51
141;BME280;65;48.778;9.160;2022-12-29T05:08:32;98016.69;;;10.91;74.51
141;BME280;65;48.778;9.160;2022-12-29T05:10:57;98006.63;;;10.84;74.43
141;BME280;65;48.778;9.160;2022-12-29T05:13:23;98006.09;;;10.78;75.43
141;BME280;65;48.778;9.160;2022-12-29T05:15:52;97999.00;;;10.79;74.41
141;BME280;65;48.778;9.160;2022-12-29T05:18:21;97999.00;;;10.79;75.44
141;BME280;65;48.778;9.160;2022-12-29T05:20:46;98008.75;;;10.91;74.40
141;BME280;65;48.778;9.160;2022-12-29T05:23:14;97998.94;;;10.93;74.03
141;BME280;65;48.778;9.160;2022-12-29T05:25:40;97995.09;;;10.85;74.04
141;BME280;65;48.778;9.160;2022-12-29T05:28:05;97995.28;;;10.69;75.35
141;BME280;65;48.778;9.160;2022-12-29T05:30:31;97999.72;;;10.68;75.04
141;BME280;65;48.778;9.160;2022-12-29T05:32:56;98001.19;;;10.60;75.88
141;BME280;65;48.778;9.160;2022-12-29T05:35:21;98015.69;;;10.67;75.30
141;BME280;65;48.778;9.160;2022-12-29T05:37:47;98009.38;;;10.82;74.59
141;BME280;65;48.778;9.160;2022-12-29T05:40:12;98013.25;;;10.64;76.10
141;BME280;65;48.778;9.160;2022-12-29T05:42:38;98004.75;;;10.46;76.41
141;BME280;65;48.778;9.160;2022-12-29T05:45:03;98000.53;;;10.43;76.26
141;BME280;65;48.778;9.160;2022-12-29T05:47:32;98013.31;;;10.50;76.45
141;BME280;65;48.778;9.160;2022-12-29T05:49:57;98003.28;;;10.55;76.00
141;BME280;65;48.778;9.160;2022-12-29T05:52:23;97999.66;;;10.83;74.48
141;BME280;65;48.778;9.160;2022-12-29T05:54:48;98007.06;;;10.90;74.36
141;BME280;65;48.778;9.160;2022-12-29T05:57:13;98003.47;;;10.91;73.77
141;BME280;65;48.778;9.160;2022-12-29T05:59:39;97992.97;;;10.77;75.00
141;BME280;65;48.778;9.160;2022-12-29T06:02:04;98003.91;;;10.98;73.16
141;BME280;65;48.778;9.160;2022-12-29T06:04:29;98004.22;;;10.93;73.79
141;BME280;65;48.778;9.160;2022-12-29T06:06:55;97988.91;;;10.98;72.99
141;BME280;65;48.778;9.160;2022-12-29T06:09:20;97983.59;;;10.86;74.09
141;BME280;65;48.778;9.160;2022-12-29T06:11:46;97962.84;;;10.80;73.99
141;BME280;65;48.778;9.160;2022-12-29T06:14:11;97958.59;;;10.64;74.37
141;BME280;65;48.778;9.160;2022-12-29T06:16:36;97945.81;;;10.58;75.42
141;BME280;65;48.778;9.160;2022-12-29T06:19:02;97956.06;;;10.63;75.26
141;BME280;65;48.778;9.160;2022-12-29T06:21:42;97973.84;;;10.73;73.63
141;BME280;65;48.778;9.160;2022-12-29T06:24:07;97976.47;;;10.73;75.00
141;BME280;65;48.778;9.160;2022-12-29T06:26:32;97976.81;;;10.82;73.31
141;BME280;65;48.778;9.160;2022-12-29T06:28:58;97972.91;;;10.87;73.08
141;BME280;65;48.778;9.160;2022-12-29T06:31:23;97970.03;;;10.77;73.53
141;BME280;65;48.778;9.160;2022-12-29T06:33:49;97982.31;;;10.78;73.27
141;BME280;65;48.778;9.160;2022-12-29T06:36:14;97971.94;;;10.88;72.58
141;BME280;65;48.778;9.160;2022-12-29T06:38:39;97975.97;;;10.94;71.97
141;BME280;65;48.778;9.160;2022-12-29T06:41:05;97977.25;;;10.88;72.89
141;BME280;65;48.778;9.160;2022-12-29T06:43:30;97972.38;;;10.82;72.66
141;BME280;65;48.778;9.160;2022-12-29T06:45:57;97976.81;;;10.82;72.57
141;BME280;65;48.778;9.160;2022-12-29T06:48:23;97981.41;;;10.53;75.05
141;BME280;65;48.778;9.160;2022-12-29T06:50:48;97980.59;;;10.38;74.87
141;BME280;65;48.778;9.160;2022-12-29T06:53:13;97979.41;;;10.29;74.83
141;BME280;65;48.778;9.160;2022-12-29T06:55:39;97969.63;;;10.17;75.89
141;BME280;65;48.778;9.160;2022-12-29T06:58:04;97970.03;;;10.11;75.85
141;BME280;65;48.778;9.160;2022-12-29T07:00:29;97974.75;;;10.06;75.39
141;BME280;65;48.778;9.160;2022-12-29T07:02:56;97975.91;;;10.02;75.08
141;BME280;65;48.778;9.160;2022-12-29T07:05:23;97983.78;;;10.16;74.68
141;BME280;65;48.778;9.160;2022-12-29T07:07:50;97983.53;;;10.06;74.32
141;BME280;65;48.778;9.160;2022-12-29T07:10:16;97980.03;;;10.06;74.56
141;BME280;65;48.778;9.160;2022-12-29T07:12:41;97982.97;;;10.01;74.56
141;BME280;65;48.778;9.160;2022-12-29T07:15:07;97987.91;;;9.93;75.23
141;BME280;65;48.778;9.160;2022-12-29T07:17:32;97991.69;;;9.89;74.84
141;BME280;65;48.778;9.160;2022-12-29T07:19:58;97995.53;;;9.98;75.24
141;BME280;65;48.778;9.160;2022-12-29T07:22:23;98001.00;;;9.95;75.09
141;BME280;65;48.778;9.160;2022-12-29T07:24:48;98001.56;;;10.00;74.82
141;BME280;65;48.778;9.160;2022-12-29T07:27:14;97985.72;;;10.00;74.07
141;BME280;65;48.778;9.160;2022-12-29T07:29:39;97997.16;;;9.86;74.99
141;BME280;65;48.778;9.160;2022-12-29T07:32:06;98000.81;;;9.69;75.61
141;BME280;65;48.778;9.160;2022-12-29T07:34:31;98006.69;;;9.60;76.70
141;BME280;65;48.778;9.160;2022-12-29T07:36:56;98001.13;;;9.50;77.08
141;BME280;65;48.778;9.160;2022-12-29T07:39:22;97993.78;;;9.56;76.94
141;BME280;65;48.778;9.160;2022-12-29T07:41:50;98000.09;;;9.39;77.88
141;BME280;65;48.778;9.160;2022-12-29T07:44:15;98002.53;;;9.42;78.69
141;BME280;65;48.778;9.160;2022-12-29T07:46:41;97996.06;;;9.33;78.77
141;BME280;65;48.778;9.160;2022-12-29T07:49:06;98006.03;;;9.28;79.01
141;BME280;65;48.778;9.160;2022-12-29T07:51:32;97998.41;;;9.38;78.59
141;BME280;65;48.778;9.160;2022-12-29T07:53:57;98009.88;;;9.65;77.94
141;BME280;65;48.778;9.160;2022-12-29T07:56:25;98007.03;;;9.68;76.74
141;BME280;65;48.778;9.160;2022-12-29T07:58:50;97999.88;;;9.70;77.03
141;BME280;65;48.778;9.160;2022-12-29T08:01:16;97993.84;;;9.68;78.06
141;BME280;65;48.778;9.160;2022-12-29T08:03:53;98002.63;;;9.55;78.51
141;BME280;65;48.778;9.160;2022-12-29T08:06:18;98001.41;;;9.46;78.50
141;BME280;65;48.778;9.160;2022-12-29T08:08:45;98009.50;;;9.29;81.57
141;BME280;65;48.778;9.160;2022-12-29T08:11:10;98009.94;;;9.21;82.35
141;BME280;65;48.778;9.160;2022-12-29T08:13:36;98017.28;;;9.16;82.59
141;BME280;65;48.778;9.160;2022-12-29T08:16:01;98022.88;;;9.54;79.02
141;BME280;65;48.778;9.160;2022-12-29T08:18:27;98024.78;;;9.52;79.57
141;BME280;65;48.778;9.160;2022-12-29T08:20:52;98029.88;;;9.55;79.66
141;BME280;65;48.778;9.160;2022-12-29T08:23:17;98039.75;;;9.51;80.47
141;BME280;65;48.778;9.160;2022-12-29T08:25:43;98039.38;;;9.58;80.01
141;BME280;65;48.778;9.160;2022-12-29T08:28:08;98028.34;;;9.65;79.08
141;BME280;65;48.778;9.160;2022-12-29T08:30:33;98019.09;;;9.72;80.31
141;BME280;65;48.778;9.160;2022-12-29T08:33:09;98028.44;;;9.78;79.64
141;BME280;65;48.778;9.160;2022-12-29T08:35:34;98026.00;;;9.89;78.08
141;BME280;65;48.778;9.160;2022-12-29T08:38:00;98019.34;;;10.10;77.75
141;BME280;65;48.778;9.160;2022-12-29T08:40:25;98011.66;;;10.34;75.45
141;BME280;65;48.778;9.160;2022-12-29T08:42:51;98000.63;;;10.42;76.34
141;BME280;65;48.778;9.160;2022-12-29T08:45:17;98000.44;;;10.58;74.42
141;BME280;65;48.778;9.160;2022-12-29T08:47:42;98011.03;;;10.58;74.24
141;BME280;65;48.778;9.160;2022-12-29T08:50:08;98015.22;;;10.48;74.94
141;BME280;65;48.778;9.160;2022-12-29T08:52:33;98013.97;;;10.53;74.11
141;BME280;65;48.778;9.160;2022-12-29T08:54:58;98007.63;;;10.56;73.73
141;BME280;65;48.778;9.160;2022-12-29T08:57:24;98010.41;;;10.67;73.08
141;BME280;65;48.778;9.160;2022-12-29T08:59:49;98018.03;;;10.71;73.27
141;BME280;65;48.778;9.160;2022-12-29T09:02:15;98019.28;;;10.66;74.12
141;BME280;65;48.778;9.160;2022-12-29T09:04:40;98025.94;;;10.59;74.09
141;BME280;65;48.778;9.160;2022-12-29T09:07:06;98024.13;;;10.59;73.37
141;BME280;65;48.778;9.160;2022-12-29T09:09:32;98039.25;;;10.57;73.65
141;BME280;65;48.778;9.160;2022-12-29T09:11:57;98033.41;;;10.92;72.09
141;BME280;65;48.778;9.160;2022-12-29T09:14:23;98038.66;;;11.19;71.04
141;BME280;65;48.778;9.160;2022-12-29T09:16:51;98046.38;;;11.34;72.05
141;BME280;65;48.778;9.160;2022-12-29T09:19:35;98045.84;;;11.42;70.16
141;BME280;65;48.778;9.160;2022-12-29T09:22:00;98045.09;;;11.53;69.27
141;BME280;65;48.778;9.160;2022-12-29T09:24:25;98051.25;;;11.53;70.06
141;BME280;65;48.778;9.160;2022-12-29T09:26:51;98051.38;;;11.64;68.52
141;BME280;65;48.778;9.160;2022-12-29T09:29:16;98057.31;;;11.68;68.69
141;BME280;65;48.778;9.160;2022-12-29T09:31:41;98045.03;;;11.80;69.08
141;BME280;65;48.778;9.160;2022-12-29T09:34:07;98055.19;;;11.86;68.69
141;BME280;65;48.778;9.160;2022-12-29T09:36:32;98057.50;;;12.03;67.60
141;BME280;65;48.778;9.160;2022-12-29T09:38:57;98065.53;;;12.14;66.75
141;BME280;65;48.778;9.160;2022-12-29T09:41:31;98067.44;;;12.12;67.46
141;BME280;65;48.778;9.160;2022-12-29T09:44:07;98055.31;;;12.33;65.81
141;BME280;65;48.778;9.160;2022-12-29T09:46:41;98064.09;;;12.34;66.75
141;BME280;65;48.778;9.160;2022-12-29T09:52:14;98050.44;;;12.27;67.32
141;BME280;65;48.778;9.160;2022-12-29T09:57:18;98058.47;;;12.62;65.57
141;BME280;65;48.778;9.160;2022-12-29T09:59:46;98057.41;;;12.65;64.96
141;BME280;65;48.778;9.160;2022-12-29T10:02:31;98052.44;;;12.60;64.79
141;BME280;65;48.778;9.160;2022-12-29T10:04:57;98047.81;;;12.51;65.18
141;BME280;65;48.778;9.160;2022-12-29T10:07:32;98049.16;;;12.57;65.24
141;BME280;65;48.778;9.160;2022-12-29T10:25:41;98044.50;;;13.19;63.90
141;BME280;65;48.778;9.160;2022-12-29T10:28:20;98045.47;;;13.18;64.08
141;BME280;65;48.778;9.160;2022-12-29T10:30:48;98052.13;;;13.24;64.19
141;BME280;65;48.778;9.160;2022-12-29T10:33:23;98043.19;;;13.25;64.64
141;BME280;65;48.778;9.160;2022-12-29T10:35:51;98048.56;;;13.36;62.30
141;BME280;65;48.778;9.160;2022-12-29T10:38:35;98044.16;;;13.24;64.01
141;BME280;65;48.778;9.160;2022-12-29T10:41:25;98040.00;;;13.33;64.14
141;BME280;65;48.778;9.160;2022-12-29T10:43:54;98048.78;;;13.33;63.82
141;BME280;65;48.778;9.160;2022-12-29T10:46:24;98048.34;;;13.50;63.13
141;BME280;65;48.778;9.160;2022-12-29T10:48:50;98046.66;;;13.72;62.19
141;BME280;65;48.778;9.160;2022-12-29T10:53:53;98044.59;;;13.75;62.70
141;BME280;65;48.778;9.160;2022-12-29T10:56:35;98041.09;;;13.86;62.57
141;BME280;65;48.778;9.160;2022-12-29T10:59:21;98048.59;;;14.14;60.72
141;BME280;65;48.778;9.160;2022-12-29T11:02:01;98030.06;;;14.35;61.07
141;BME280;65;48.778;9.160;2022-12-29T11:07:18;98039.75;;;14.25;59.92
141;BME280;65;48.778;9.160;2022-12-29T11:09:45;98044.63;;;14.09;60.42
141;BME280;65;48.778;9.160;2022-12-29T11:12:27;98045.38;;;13.88;61.12
141;BME280;65;48.778;9.160;2022-12-29T11:17:53;98054.53;;;13.96;60.50
141;BME280;65;48.778;9.160;2022-12-29T11:20:35;98060.94;;;14.04;61.12
141;BME280;65;48.778;9.160;2022-12-29T11:23:03;98055.38;;;13.96;61.31
141;BME280;65;48.778;9.160;2022-12-29T11:25:29;98056.06;;;13.65;62.68
141;BME280;65;48.778;9.160;2022-12-29T11:28:16;98056.78;;;13.55;62.17
141;BME280;65;48.778;9.160;2022-12-29T11:30:42;98051.72;;;13.64;62.26
141;BME280;65;48.778;9.160;2022-12-29T11:33:08;98055.34;;;13.63;62.09
141;BME280;65;48.778;9.160;2022-12-29T11:35:42;98054.63;;;13.60;62.43
141;BME280;65;48.778;9.160;2022-12-29T11:38:20;98077.44;;;13.52;63.07
141;BME280;65;48.778;9.160;2022-12-29T11:40:46;98063.78;;;13.45;63.46
141;BME280;65;48.778;9.160;2022-12-29T11:43:30;98068.53;;;13.29;65.53
141;BME280;65;48.778;9.160;2022-12-29T11:45:58;98079.97;;;12.94;68.41
141;BME280;65;48.778;9.160;2022-12-29T11:48:28;98064.06;;;12.94;70.55
141;BME280;65;48.778;9.160;2022-12-29T11:51:21;98075.75;;;12.68;73.72
141;BME280;65;48.778;9.160;2022-12-29T11:53:58;98066.63;;;12.72;73.09
141;BME280;65;48.778;9.160;2022-12-29T11:56:41;98078.03;;;12.49;75.17
141;BME280;65;48.778;9.160;2022-12-29T11:59:38;98079.22;;;12.45;75.46
141;BME280;65;48.778;9.160;2022-12-29T12:08:04;98062.13;;;12.12;80.96
141;BME280;65;48.778;9.160;2022-12-29T12:10:36;98061.22;;;11.88;85.29
141;BME280;65;48.778;9.160;2022-12-29T12:13:20;98066.84;;;11.70;88.27
141;BME280;65;48.778;9.160;2022-12-29T12:15:55;98045.03;;;11.80;82.42
141;BME280;65;48.778;9.160;2022-12-29T12:18:43;98054.03;;;11.90;81.20
141;BME280;65;48.778;9.160;2022-12-29T12:21:30;98047.78;;;11.91;82.93
141;BME280;65;48.778;9.160;2022-12-29T12:24:34;98045.81;;;12.06;78.76
141;BME280;65;48.778;9.160;2022-12-29T12:27:17;98046.22;;;12.12;77.71
141;BME280;65;48.778;9.160;2022-12-29T12:30:01;98059.59;;;12.23;77.80
141;BME280;65;48.778;9.160;2022-12-29T12:35:30;98046.91;;;12.63;75.39
141;BME280;65;48.778;9.160;2022-12-29T12:43:08;98049.44;;;12.65;75.24
141;BME280;65;48.778;9.160;2022-12-29T12:45:52;98040.44;;;12.44;76.99
141;BME280;65;48.778;9.160;2022-12-29T12:51:52;98037.72;;;12.32;78.87
141;BME280;65;48.778;9.160;2022-12-29T13:02:28;98025.59;;;12.65;77.85
141;BME280;65;48.778;9.160;2022-12-29T13:30:17;98012.94;;;12.68;77.78
141;BME280;65;48.778;9.160;2022-12-29T13:33:21;98019.28;;;12.55;78.69
141;BME280;65;48.778;9.160;2022-12-29T13:35:56;98016.00;;;12.51;78.44
141;BME280;65;48.778;9.160;2022-12-29T13:38:26;98016.06;;;12.39;79.11
141;BME280;65;48.778;9.160;2022-12-29T13:41:08;98018.16;;;12.46;79.33
141;BME280;65;48.778;9.160;2022-12-29T13:43:38;98015.09;;;12.40;80.71
141;BME280;65;48.778;9.160;2022-12-29T13:46:12;98012.06;;;12.33;80.76
141;BME280;65;48.778;9.160;2022-12-29T13:51:19;98017.06;;;12.49;79.38
141;BME280;65;48.778;9.160;2022-12-29T13:59:28;97999.44;;;12.37;80.64
141;BME280;65;48.778;9.160;2022-12-29T14:02:20;98012.97;;;12.21;80.57
141;BME280;65;48.778;9.160;2022-12-29T14:05:01;98007.44;;;12.24;81.26
141;BME280;65;48.778;9.160;2022-12-29T14:07:27;98011.66;;;12.26;82.16
141;BME280;65;48.778;9.160;2022-12-29T14:09:55;98006.47;;;12.25;81.58
141;BME280;65;48.778;9.160;2022-12-29T14:15:02;98007.94;;;12.29;82.13
141;BME280;65;48.778;9.160;2022-12-29T14:17:28;98013.34;;;12.27;81.92
141;BME280;65;48.778;9.160;2022-12-29T14:19:54;98026.94;;;12.23;82.26
141;BME280;65;48.778;9.160;2022-12-29T14:22:27;98021.75;;;12.21;81.99
141;BME280;65;48.778;9.160;2022-12-29T14:24:53;98020.59;;;12.13;83.74
141;BME280;65;48.778;9.160;2022-12-29T14:29:50;98027.75;;;11.74;85.74
141;BME280;65;48.778;9.160;2022-12-29T14:35:01;98016.41;;;11.97;83.77
141;BME280;65;48.778;9.160;2022-12-29T14:37:45;98018.00;;;11.87;83.89
141;BME280;65;48.778;9.160;2022-12-29T14:40:29;98020.44;;;11.90;83.12
141;BME280;65;48.778;9.160;2022-12-29T14:42:55;98034.13;;;11.84;83.31
141;BME280;65;48.778;9.160;2022-12-29T14:45:29;98035.06;;;11.70;85.05
141;BME280;65;48.778;9.160;2022-12-29T14:47:56;98032.72;;;11.53;86.08
141;BME280;65;48.778;9.160;2022-12-29T14:50:40;98028.06;;;11.44;86.71
141;BME280;65;48.778;9.160;2022-12-29T14:53:38;98031.25;;;11.49;85.28
141;BME280;65;48.778;9.160;2022-12-29T14:55:55;98027.44;;;11.53;86.12
141;BME280;65;48.778;9.160;2022-12-29T14:58:27;98024.16;;;11.50;85.88
141;BME280;65;48.778;9.160;2022-12-29T15:00:54;98026.16;;;11.46;87.30
141;BME280;65;48.778;9.160;2022-12-29T15:05:51;98022.13;;;11.53;85.50
141;BME280;65;48.778;9.160;2022-12-29T15:08:20;98028.28;;;11.41;85.70
141;BME280;65;48.778;9.160;2022-12-29T15:13:23;98018.13;;;11.35;86.93
141;BME280;65;48.778;9.160;2022-12-29T15:15:50;98012.31;;;11.30;86.72
141;BME280;65;48.778;9.160;2022-12-29T15:18:22;98011.25;;;11.20;87.46
141;BME280;65;48.778;9.160;2022-12-29T15:20:51;98007.22;;;11.14;86.80
141;BME280;65;48.778;9.160;2022-12-29T15:23:18;98009.13;;;11.25;85.37
141;BME280;65;48.778;9.160;2022-12-29T15:25:53;98018.03;;;11.24;85.56
141;BME280;65;48.778;9.160;2022-12-29T15:28:20;98013.03;;;11.06;87.01
141;BME280;65;48.778;9.160;2022-12-29T15:30:55;98012.19;;;11.06;86.53
141;BME280;65;48.778;9.160;2022-12-29T15:33:23;98018.22;;;11.08;85.58
141;BME280;65;48.778;9.160;2022-12-29T15:35:54;98015.38;;;11.11;84.67
141;BME280;65;48.778;9.160;2022-12-29T15:38:25;98032.91;;;10.99;86.30
141;BME280;65;48.778;9.160;2022-12-29T15:40:55;98033.19;;;10.95;86.67
141;BME280;65;48.778;9.160;2022-12-29T15:46:05;98060.44;;;11.22;85.28
141;BME280;65;48.778;9.160;2022-12-29T15:48:31;98063.41;;;11.30;84.43
141;BME280;65;48.778;9.160;2022-12-29T15:50:57;98067.97;;;11.28;84.86
141;BME280;65;48.778;9.160;2022-12-29T15:53:31;98077.69;;;11.28;86.39
141;BME280;65;48.778;9.160;2022-12-29T15:56:05;98090.38;;;11.10;89.74
141;BME280;65;48.778;9.160;2022-12-29T15:58:40;98090.38;;;10.83;94.68
141;BME280;65;48.778;9.160;2022-12-29T16:01:35;98111.63;;;10.55;98.33
141;BME280;65;48.778;9.160;2022-12-29T16:04:05;98105.25;;;10.30;99.08
141;BME280;65;48.778;9.160;2022-12-29T16:11:37;98120.22;;;9.73;100.00
141;BME280;65;48.778;9.160;2022-12-29T16:14:16;98108.81;;;9.58;100.00
141;BME280;65;48.778;9.160;2022-12-29T16:16:44;98114.19;;;9.42;100.00
141;BME280;65;48.778;9.160;2022-12-29T16:21:58;98115.13;;;9.11;100.00
141;BME280;65;48.778;9.160;2022-12-29T16:24:26;98109.44;;;9.03;100.00
141;BME280;65;48.778;9.160;2022-12-29T16:29:25;98121.09;;;8.99;100.00
141;BME280;65;48.778;9.160;2022-12-29T16:31:53;98117.53;;;9.00;100.00
141;BME280;65;48.778;9.160;2022-12-29T16:34:31;98119.22;;;9.01;100.00
141;BME280;65;48.778;9.160;2022-12-29T16:37:02;98120.09;;;9.02;100.00
141;BME280;65;48.778;9.160;2022-12-29T16:39:38;98132.16;;;9.06;100.00
141;BME280;65;48.778;9.160;2022-12-29T16:42:33;98127.44;;;9.11;100.00
141;BME280;65;48.778;9.160;2022-12-29T16:50:42;98136.47;;;9.07;100.00
141;BME280;65;48.778;9.160;2022-12-29T16:53:25;98139.19;;;9.05;100.00
141;BME280;65;48.778;9.160;2022-12-29T16:55:53;98150.00;;;9.01;100.00